createdAt,value
2017-03-12T00:00:03.411Z,18.82
2017-03-12T00:01:14.167Z,18.85
2017-03-12T00:02:24.983Z,18.94
2017-03-12T00:03:36.085Z,18.92
2017-03-12T00:04:46.443Z,18.94
2017-03-12T00:05:57.192Z,18.85
2017-03-12T00:07:07.550Z,18.89
2017-03-12T00:08:17.530Z,18.92
2017-03-12T00:09:28.190Z,18.85
2017-03-12T00:10:38.936Z,18.86
2017-03-12T00:11:49.710Z,18.88
2017-03-12T00:13:00.593Z,18.82
2017-03-12T00:14:11.358Z,18.83
2017-03-12T00:15:22.366Z,18.81
2017-03-12T00:16:32.706Z,18.91
2017-03-12T00:17:43.470Z,18.85
2017-03-12T00:18:53.835Z,18.88
2017-03-12T00:20:04.680Z,18.86
2017-03-12T00:21:15.307Z,18.85
2017-03-12T00:22:25.670Z,18.86
2017-03-12T00:23:36.415Z,18.85
2017-03-12T00:24:46.763Z,18.88
2017-03-12T00:25:57.120Z,18.85
2017-03-12T00:27:08.142Z,18.86
2017-03-12T00:28:18.869Z,18.83
2017-03-12T00:29:29.208Z,18.94
2017-03-12T00:30:39.191Z,18.86
2017-03-12T00:31:49.930Z,18.85
2017-03-12T00:33:00.917Z,18.83
2017-03-12T00:34:11.288Z,18.85
2017-03-12T00:35:21.629Z,18.88
2017-03-12T00:36:32.386Z,18.83
2017-03-12T00:37:43.245Z,18.88
2017-03-12T00:38:54.238Z,18.88
2017-03-12T00:40:05.016Z,18.89
2017-03-12T00:41:15.771Z,18.82
2017-03-12T00:42:26.526Z,18.86
2017-03-12T00:43:36.887Z,18.83
2017-03-12T00:44:47.934Z,18.89
2017-03-12T00:45:58.687Z,18.89
2017-03-12T00:47:08.646Z,18.91
2017-03-12T00:48:19.386Z,18.85
2017-03-12T00:49:30.129Z,18.76
2017-03-12T00:50:40.772Z,18.83
2017-03-12T00:51:51.137Z,18.82
2017-03-12T00:53:01.473Z,18.82
2017-03-12T00:54:11.809Z,18.74
2017-03-12T00:55:21.764Z,18.85
2017-03-12T00:56:32.359Z,18.73
2017-03-12T00:57:42.704Z,18.82
2017-03-12T00:58:53.447Z,18.81
2017-03-12T01:00:04.225Z,18.82
2017-03-12T01:01:15.009Z,18.7
2017-03-12T01:02:26.115Z,18.78
2017-03-12T01:03:36.100Z,18.83
2017-03-12T01:04:46.850Z,18.78
2017-03-12T01:05:57.591Z,18.76
2017-03-12T01:07:07.934Z,18.81
2017-03-12T01:08:18.933Z,18.73
2017-03-12T01:09:29.680Z,18.76
2017-03-12T01:10:40.052Z,18.78
2017-03-12T01:11:50.001Z,18.76
2017-03-12T01:13:00.778Z,18.76
2017-03-12T01:14:11.777Z,18.73
2017-03-12T01:15:22.142Z,18.78
2017-03-12T01:16:31.726Z,18.81
2017-03-12T01:17:42.087Z,18.82
2017-03-12T01:18:52.071Z,18.76
2017-03-12T01:20:02.720Z,18.74
2017-03-12T01:21:13.107Z,18.73
2017-03-12T01:22:23.861Z,18.74
2017-03-12T01:23:34.216Z,18.78
2017-03-12T01:24:44.954Z,18.7
2017-03-12T01:25:55.565Z,18.76
2017-03-12T01:27:06.016Z,18.73
2017-03-12T01:28:16.907Z,18.74
2017-03-12T01:29:27.254Z,18.74
2017-03-12T01:30:36.803Z,18.68
2017-03-12T01:31:47.047Z,18.73
2017-03-12T01:32:57.396Z,18.78
2017-03-12T01:34:08.177Z,18.76
2017-03-12T01:35:18.933Z,18.74
2017-03-12T01:36:29.268Z,18.73
2017-03-12T01:37:39.879Z,18.73
2017-03-12T01:38:50.259Z,18.78
2017-03-12T01:40:00.635Z,18.76
2017-03-12T01:41:11.383Z,18.74
2017-03-12T01:42:21.345Z,18.74
2017-03-12T01:43:31.991Z,18.74
2017-03-12T01:44:42.743Z,18.7
2017-03-12T01:45:53.495Z,18.76
2017-03-12T01:47:03.875Z,18.71
2017-03-12T01:48:14.212Z,18.67
2017-03-12T01:49:24.811Z,18.68
2017-03-12T01:50:34.372Z,18.73
2017-03-12T01:51:44.719Z,18.7
2017-03-12T01:52:55.068Z,18.71
2017-03-12T01:54:05.873Z,18.79
2017-03-12T01:55:16.933Z,18.71
2017-03-12T01:56:27.726Z,18.73
2017-03-12T01:57:38.487Z,18.64
2017-03-12T01:58:48.039Z,18.68
2017-03-12T01:59:58.785Z,18.71
2017-03-12T02:01:09.378Z,18.78
2017-03-12T02:02:19.344Z,18.71
2017-03-12T02:03:30.104Z,18.64
2017-03-12T02:04:40.859Z,18.61
2017-03-12T02:05:51.213Z,18.79
2017-03-12T02:07:02.272Z,18.71
2017-03-12T02:08:13.021Z,18.64
2017-03-12T02:09:22.971Z,18.68
2017-03-12T02:10:33.307Z,18.66
2017-03-12T02:11:43.662Z,18.68
2017-03-12T02:12:54.273Z,18.74
2017-03-12T02:14:05.018Z,18.71
2017-03-12T02:15:15.761Z,18.64
2017-03-12T02:16:26.132Z,18.66
2017-03-12T02:17:35.726Z,18.64
2017-03-12T02:18:46.721Z,18.67
2017-03-12T02:19:57.477Z,18.7
2017-03-12T02:21:08.222Z,18.61
2017-03-12T02:22:18.583Z,18.64
2017-03-12T02:23:29.369Z,18.7
2017-03-12T02:24:40.372Z,18.71
2017-03-12T02:25:51.108Z,18.66
2017-03-12T02:27:01.476Z,18.58
2017-03-12T02:28:12.199Z,18.64
2017-03-12T02:29:22.948Z,18.58
2017-03-12T02:30:34.026Z,18.67
2017-03-12T02:31:44.373Z,18.64
2017-03-12T02:32:54.743Z,18.55
2017-03-12T02:34:04.737Z,18.57
2017-03-12T02:35:14.292Z,18.58
2017-03-12T02:36:25.310Z,18.61
2017-03-12T02:37:35.646Z,18.6
2017-03-12T02:38:45.575Z,18.58
2017-03-12T02:39:55.921Z,18.6
2017-03-12T02:41:06.273Z,18.61
2017-03-12T02:42:17.326Z,18.64
2017-03-12T02:43:27.687Z,18.57
2017-03-12T02:44:37.645Z,18.58
2017-03-12T02:45:47.988Z,18.61
2017-03-12T02:46:58.724Z,18.55
2017-03-12T02:48:08.538Z,18.63
2017-03-12T02:49:19.296Z,18.58
2017-03-12T02:50:29.649Z,18.58
2017-03-12T02:51:40.381Z,18.53
2017-03-12T02:52:50.733Z,18.58
2017-03-12T02:54:01.790Z,18.55
2017-03-12T02:55:12.138Z,18.55
2017-03-12T02:56:22.502Z,18.57
2017-03-12T02:57:32.465Z,18.6
2017-03-12T02:58:42.838Z,18.6
2017-03-12T02:59:53.099Z,18.55
2017-03-12T03:01:03.863Z,18.49
2017-03-12T03:02:14.241Z,18.55
2017-03-12T03:03:24.615Z,18.53
2017-03-12T03:04:35.341Z,18.57
2017-03-12T03:05:46.397Z,18.58
2017-03-12T03:06:56.359Z,18.58
2017-03-12T03:08:06.318Z,18.64
2017-03-12T03:09:15.889Z,18.57
2017-03-12T03:10:26.257Z,18.57
2017-03-12T03:11:36.913Z,18.55
2017-03-12T03:12:47.252Z,18.53
2017-03-12T03:13:57.223Z,18.42
2017-03-12T03:15:07.578Z,18.52
2017-03-12T03:16:17.911Z,18.51
2017-03-12T03:17:28.558Z,18.57
2017-03-12T03:18:38.503Z,18.48
2017-03-12T03:19:49.262Z,18.55
2017-03-12T03:20:59.623Z,18.53
2017-03-12T03:22:09.989Z,18.6
2017-03-12T03:23:20.251Z,18.55
2017-03-12T03:24:31.000Z,18.51
2017-03-12T03:25:41.354Z,18.52
2017-03-12T03:26:52.100Z,18.53
2017-03-12T03:28:02.125Z,18.52
2017-03-12T03:29:13.160Z,18.51
2017-03-12T03:30:23.930Z,18.48
2017-03-12T03:31:33.882Z,18.46
2017-03-12T03:32:44.257Z,18.52
2017-03-12T03:33:55.009Z,18.53
2017-03-12T03:35:05.277Z,18.52
2017-03-12T03:36:15.626Z,18.49
2017-03-12T03:37:25.980Z,18.43
2017-03-12T03:38:35.959Z,18.48
2017-03-12T03:39:46.302Z,18.46
2017-03-12T03:40:56.564Z,18.49
2017-03-12T03:42:06.128Z,18.48
2017-03-12T03:43:16.884Z,18.48
2017-03-12T03:44:27.646Z,18.49
2017-03-12T03:45:37.995Z,18.46
2017-03-12T03:46:49.030Z,18.57
2017-03-12T03:47:59.770Z,18.49
2017-03-12T03:49:10.112Z,18.43
2017-03-12T03:50:20.853Z,18.43
2017-03-12T03:51:30.814Z,18.51
2017-03-12T03:52:41.072Z,18.48
2017-03-12T03:53:51.815Z,18.52
2017-03-12T03:55:01.758Z,18.45
2017-03-12T03:56:12.484Z,18.45
2017-03-12T03:57:23.233Z,18.46
2017-03-12T03:58:33.831Z,18.46
2017-03-12T03:59:44.561Z,18.53
2017-03-12T04:00:54.910Z,18.46
2017-03-12T04:02:05.637Z,18.48
2017-03-12T04:03:15.594Z,18.48
2017-03-12T04:04:25.793Z,18.45
2017-03-12T04:05:36.525Z,18.43
2017-03-12T04:06:46.881Z,18.42
2017-03-12T04:07:57.607Z,18.41
2017-03-12T04:09:07.951Z,18.51
2017-03-12T04:10:18.570Z,18.41
2017-03-12T04:11:29.323Z,18.48
2017-03-12T04:12:40.070Z,18.42
2017-03-12T04:13:50.829Z,18.43
2017-03-12T04:15:00.807Z,18.41
2017-03-12T04:16:11.805Z,18.45
2017-03-12T04:17:22.560Z,18.45
2017-03-12T04:18:32.516Z,18.45
2017-03-12T04:19:42.868Z,18.43
2017-03-12T04:20:53.639Z,18.41
2017-03-12T04:22:04.268Z,18.42
2017-03-12T04:23:14.247Z,18.37
2017-03-12T04:24:24.605Z,18.37
2017-03-12T04:25:35.369Z,18.45
2017-03-12T04:26:46.129Z,18.48
2017-03-12T04:27:57.178Z,18.41
2017-03-12T04:29:07.533Z,18.36
2017-03-12T04:30:17.888Z,18.45
2017-03-12T04:31:28.655Z,18.36
2017-03-12T04:32:38.638Z,18.36
2017-03-12T04:33:49.683Z,18.37
2017-03-12T04:35:00.029Z,18.34
2017-03-12T04:36:09.976Z,18.36
2017-03-12T04:37:20.731Z,18.41
2017-03-12T04:38:31.505Z,18.34
2017-03-12T04:39:41.808Z,18.43
2017-03-12T04:40:52.163Z,18.37
2017-03-12T04:42:02.151Z,18.36
2017-03-12T04:43:12.871Z,18.37
2017-03-12T04:44:23.228Z,18.41
2017-03-12T04:45:33.838Z,18.39
2017-03-12T04:46:44.206Z,18.33
2017-03-12T04:47:54.951Z,18.34
2017-03-12T04:49:05.547Z,18.39
2017-03-12T04:50:15.885Z,18.36
2017-03-12T04:51:26.529Z,18.33
2017-03-12T04:52:36.900Z,18.37
2017-03-12T04:53:47.242Z,18.46
2017-03-12T04:54:57.998Z,18.36
2017-03-12T04:56:08.377Z,18.41
2017-03-12T04:57:19.370Z,18.33
2017-03-12T04:58:29.754Z,18.39
2017-03-12T04:59:40.103Z,18.43
2017-03-12T05:00:49.271Z,18.34
2017-03-12T05:02:00.012Z,18.37
2017-03-12T05:03:10.641Z,18.41
2017-03-12T05:04:21.000Z,18.42
2017-03-12T05:05:31.744Z,18.39
2017-03-12T05:06:41.696Z,18.39
2017-03-12T05:07:52.436Z,18.39
2017-03-12T05:09:03.066Z,18.39
2017-03-12T05:10:13.409Z,18.39
2017-03-12T05:11:24.134Z,18.39
2017-03-12T05:12:34.874Z,18.34
2017-03-12T05:13:45.223Z,18.36
2017-03-12T05:14:55.021Z,18.26
2017-03-12T05:16:04.611Z,18.37
2017-03-12T05:17:14.560Z,18.34
2017-03-12T05:18:24.928Z,18.41
2017-03-12T05:19:34.899Z,18.48
2017-03-12T05:20:45.888Z,18.36
2017-03-12T05:21:55.856Z,18.36
2017-03-12T05:23:05.796Z,18.41
2017-03-12T05:24:16.533Z,18.36
2017-03-12T05:25:27.293Z,18.37
2017-03-12T05:26:37.894Z,18.36
2017-03-12T05:27:48.237Z,18.34
2017-03-12T05:28:58.598Z,18.34
2017-03-12T05:30:09.347Z,18.36
2017-03-12T05:31:19.712Z,18.3
2017-03-12T05:32:30.317Z,18.34
2017-03-12T05:33:41.047Z,18.36
2017-03-12T05:34:51.017Z,18.33
2017-03-12T05:36:00.572Z,18.33
2017-03-12T05:37:10.942Z,18.33
2017-03-12T05:38:21.946Z,18.37
2017-03-12T05:39:31.889Z,18.28
2017-03-12T05:40:42.243Z,18.23
2017-03-12T05:41:52.576Z,18.24
2017-03-12T05:43:02.903Z,18.24
2017-03-12T05:44:13.588Z,18.18
2017-03-12T05:45:24.352Z,18.26
2017-03-12T05:46:34.723Z,18.23
2017-03-12T05:47:45.094Z,18.28
2017-03-12T05:48:55.479Z,18.36
2017-03-12T05:50:10.442Z,18.41
2017-03-12T05:51:20.781Z,18.33
2017-03-12T05:52:31.161Z,18.28
2017-03-12T05:53:41.931Z,18.26
2017-03-12T05:54:52.685Z,18.34
2017-03-12T05:56:03.280Z,18.36
2017-03-12T05:57:13.228Z,18.36
2017-03-12T05:58:23.172Z,18.36
2017-03-12T05:59:33.124Z,18.37
2017-03-12T06:00:43.884Z,18.41
2017-03-12T06:01:54.874Z,18.34
2017-03-12T06:03:04.055Z,18.36
2017-03-12T06:04:14.403Z,18.34
2017-03-12T06:05:24.353Z,18.36
2017-03-12T06:06:34.691Z,18.31
2017-03-12T06:07:45.328Z,18.37
2017-03-12T06:08:55.680Z,18.34
2017-03-12T06:10:06.057Z,18.39
2017-03-12T06:11:16.407Z,18.31
2017-03-12T06:12:27.142Z,18.41
2017-03-12T06:13:38.182Z,18.37
2017-03-12T06:14:48.154Z,18.31
2017-03-12T06:15:58.133Z,18.39
2017-03-12T06:17:08.895Z,18.37
2017-03-12T06:18:19.639Z,18.39
2017-03-12T06:19:30.231Z,18.31
2017-03-12T06:20:41.031Z,18.33
2017-03-12T06:21:51.379Z,18.36
2017-03-12T06:23:02.130Z,18.34
2017-03-12T06:24:12.471Z,18.36
2017-03-12T06:25:23.085Z,18.42
2017-03-12T06:26:32.271Z,18.37
2017-03-12T06:27:43.020Z,18.43
2017-03-12T06:28:53.363Z,18.46
2017-03-12T06:30:03.713Z,18.42
2017-03-12T06:31:14.333Z,18.48
2017-03-12T06:32:24.301Z,18.43
2017-03-12T06:33:35.064Z,18.48
2017-03-12T06:34:45.423Z,18.49
2017-03-12T06:35:56.170Z,18.43
2017-03-12T06:37:06.771Z,18.42
2017-03-12T06:38:17.530Z,18.45
2017-03-12T06:39:28.297Z,18.42
2017-03-12T06:40:39.024Z,18.45
2017-03-12T06:41:49.402Z,18.51
2017-03-12T06:43:00.406Z,18.46
2017-03-12T06:44:10.752Z,18.46
2017-03-12T06:45:20.698Z,18.52
2017-03-12T06:46:31.056Z,18.55
2017-03-12T06:47:41.521Z,18.53
2017-03-12T06:48:52.154Z,18.48
2017-03-12T06:50:02.517Z,18.51
2017-03-12T06:51:12.854Z,18.53
2017-03-12T06:52:23.241Z,18.57
2017-03-12T06:53:33.625Z,18.51
2017-03-12T06:54:44.624Z,18.51
2017-03-12T06:55:54.999Z,18.53
2017-03-12T06:57:05.363Z,18.6
2017-03-12T06:58:16.147Z,18.53
2017-03-12T06:59:25.717Z,18.55
2017-03-12T07:00:36.719Z,18.53
2017-03-12T07:01:47.085Z,18.58
2017-03-12T07:02:57.450Z,18.6
2017-03-12T07:04:07.418Z,18.57
2017-03-12T07:05:17.789Z,18.58
2017-03-12T07:06:28.387Z,18.6
2017-03-12T07:07:38.765Z,18.58
2017-03-12T07:08:49.532Z,18.58
2017-03-12T07:10:00.294Z,18.53
2017-03-12T07:11:10.624Z,18.58
2017-03-12T07:12:21.235Z,18.64
2017-03-12T07:13:31.209Z,18.58
2017-03-12T07:14:41.146Z,18.57
2017-03-12T07:15:51.511Z,18.7
2017-03-12T07:17:02.295Z,18.6
2017-03-12T07:18:13.427Z,18.58
2017-03-12T07:19:23.796Z,18.7
2017-03-12T07:20:34.538Z,18.58
2017-03-12T07:21:44.886Z,18.61
2017-03-12T07:22:55.651Z,18.63
2017-03-12T07:24:06.240Z,18.63
2017-03-12T07:25:17.001Z,18.63
2017-03-12T07:26:27.388Z,18.68
2017-03-12T07:27:38.160Z,18.61
2017-03-12T07:28:48.906Z,18.68
2017-03-12T07:29:59.891Z,18.63
2017-03-12T07:31:10.639Z,18.68
2017-03-12T07:32:21.392Z,18.6
2017-03-12T07:33:32.133Z,18.67
2017-03-12T07:34:42.121Z,18.66
2017-03-12T07:35:53.141Z,18.64
2017-03-12T07:37:03.891Z,18.68
2017-03-12T07:38:14.643Z,18.63
2017-03-12T07:39:25.392Z,18.71
2017-03-12T07:40:35.739Z,18.7
2017-03-12T07:41:46.765Z,18.64
2017-03-12T07:42:57.537Z,18.7
2017-03-12T07:44:08.262Z,18.73
2017-03-12T07:45:17.827Z,18.66
2017-03-12T07:46:28.191Z,18.68
2017-03-12T07:47:39.197Z,18.6
2017-03-12T07:48:50.235Z,18.58
2017-03-12T07:50:00.643Z,18.67
2017-03-12T07:51:11.643Z,18.71
2017-03-12T07:52:21.995Z,18.68
2017-03-12T07:53:32.652Z,18.64
2017-03-12T07:54:43.037Z,18.68
2017-03-12T07:55:53.001Z,18.63
2017-03-12T07:57:03.750Z,18.63
2017-03-12T07:58:14.505Z,18.67
2017-03-12T07:59:25.504Z,18.66
2017-03-12T08:00:35.482Z,18.64
2017-03-12T08:01:46.247Z,18.7
2017-03-12T08:02:57.019Z,18.61
2017-03-12T08:04:07.389Z,18.63
2017-03-12T08:05:17.984Z,18.61
2017-03-12T08:06:28.365Z,18.57
2017-03-12T08:07:38.719Z,18.58
2017-03-12T08:08:49.482Z,18.63
2017-03-12T08:10:00.256Z,18.61
2017-03-12T08:11:11.235Z,18.6
2017-03-12T08:12:21.985Z,18.58
2017-03-12T08:13:31.973Z,18.67
2017-03-12T08:14:42.338Z,18.58
2017-03-12T08:15:53.085Z,18.63
2017-03-12T08:17:03.677Z,18.57
2017-03-12T08:18:14.069Z,18.6
2017-03-12T08:19:24.816Z,18.61
2017-03-12T08:20:35.598Z,18.57
2017-03-12T08:21:46.390Z,18.55
2017-03-12T08:22:57.408Z,18.58
2017-03-12T08:24:08.153Z,18.6
2017-03-12T08:25:18.115Z,18.53
2017-03-12T08:26:28.479Z,18.55
2017-03-12T08:27:38.438Z,18.58
2017-03-12T08:28:49.437Z,18.57
2017-03-12T08:29:59.790Z,18.45
2017-03-12T08:31:10.141Z,18.52
2017-03-12T08:32:20.483Z,18.49
2017-03-12T08:33:30.844Z,18.57
2017-03-12T08:34:41.827Z,18.46
2017-03-12T08:35:52.201Z,18.52
2017-03-12T08:37:02.989Z,18.46
2017-03-12T08:38:13.337Z,18.49
2017-03-12T08:39:24.076Z,18.57
2017-03-12T08:40:35.101Z,18.57
2017-03-12T08:41:45.876Z,18.52
2017-03-12T08:42:56.225Z,18.57
2017-03-12T08:44:06.623Z,18.58
2017-03-12T08:45:17.363Z,18.57
2017-03-12T08:46:28.359Z,18.52
2017-03-12T08:47:39.106Z,18.52
2017-03-12T08:48:49.851Z,18.53
2017-03-12T08:50:00.208Z,18.46
2017-03-12T08:51:10.954Z,18.6
2017-03-12T08:52:21.955Z,18.52
2017-03-12T08:53:32.313Z,18.55
2017-03-12T08:54:43.075Z,18.45
2017-03-12T08:55:53.866Z,18.53
2017-03-12T08:57:04.615Z,18.46
2017-03-12T08:58:15.683Z,18.52
2017-03-12T08:59:26.457Z,18.49
2017-03-12T09:00:36.813Z,18.51
2017-03-12T09:01:47.577Z,18.53
2017-03-12T09:02:57.949Z,18.48
2017-03-12T09:04:08.966Z,18.51
2017-03-12T09:05:19.718Z,18.49
2017-03-12T09:06:30.086Z,18.51
2017-03-12T09:07:40.848Z,18.49
2017-03-12T09:08:51.193Z,18.45
2017-03-12T09:10:02.210Z,18.53
2017-03-12T09:11:12.588Z,18.51
2017-03-12T09:12:23.328Z,18.45
2017-03-12T09:13:33.675Z,18.45
2017-03-12T09:14:44.466Z,18.51
2017-03-12T09:15:55.471Z,18.43
2017-03-12T09:17:05.830Z,18.41
2017-03-12T09:18:16.582Z,18.37
2017-03-12T09:19:26.968Z,18.49
2017-03-12T09:20:37.724Z,18.43
2017-03-12T09:21:48.736Z,18.43
2017-03-12T09:22:59.550Z,18.51
2017-03-12T09:24:10.339Z,18.46
2017-03-12T09:25:21.094Z,18.45
2017-03-12T09:26:31.872Z,18.52
2017-03-12T09:27:42.890Z,18.58
2017-03-12T09:28:53.658Z,18.42
2017-03-12T09:30:04.018Z,18.52
2017-03-12T09:31:14.804Z,18.46
2017-03-12T09:32:25.597Z,18.48
2017-03-12T09:33:36.605Z,18.46
2017-03-12T09:34:47.014Z,18.53
2017-03-12T09:35:57.763Z,18.57
2017-03-12T09:37:08.169Z,18.52
2017-03-12T09:38:18.958Z,18.53
2017-03-12T09:39:29.960Z,18.53
2017-03-12T09:40:40.338Z,18.57
2017-03-12T09:41:50.691Z,18.57
2017-03-12T09:43:01.468Z,18.58
2017-03-12T09:44:12.204Z,18.49
2017-03-12T09:45:23.221Z,18.53
2017-03-12T09:46:33.996Z,18.58
2017-03-12T09:47:44.368Z,18.55
2017-03-12T09:48:55.113Z,18.52
2017-03-12T09:50:05.466Z,18.46
2017-03-12T09:51:16.103Z,18.57
2017-03-12T09:52:26.087Z,18.51
2017-03-12T09:53:36.452Z,18.51
2017-03-12T09:54:46.849Z,18.55
2017-03-12T09:55:57.616Z,18.53
2017-03-12T09:57:08.643Z,18.58
2017-03-12T09:58:19.420Z,18.57
2017-03-12T09:59:30.197Z,18.51
2017-03-12T10:00:40.961Z,18.45
2017-03-12T10:01:51.718Z,18.6
2017-03-12T10:03:02.713Z,18.51
2017-03-12T10:04:13.485Z,18.57
2017-03-12T10:05:24.219Z,18.57
2017-03-12T10:06:34.561Z,18.53
2017-03-12T10:07:44.111Z,18.45
2017-03-12T10:08:54.361Z,18.52
2017-03-12T10:10:05.136Z,18.53
2017-03-12T10:11:15.900Z,18.51
2017-03-12T10:12:26.303Z,18.58
2017-03-12T10:13:36.674Z,18.53
2017-03-12T10:14:47.677Z,18.53
2017-03-12T10:15:58.021Z,18.55
2017-03-12T10:17:07.957Z,18.48
2017-03-12T10:18:18.692Z,18.6
2017-03-12T10:19:29.010Z,18.53
2017-03-12T10:20:39.620Z,18.55
2017-03-12T10:21:50.370Z,18.55
2017-03-12T10:23:00.706Z,18.55
2017-03-12T10:24:11.432Z,18.53
2017-03-12T10:25:21.782Z,18.53
2017-03-12T10:26:32.352Z,18.6
2017-03-12T10:27:42.326Z,18.63
2017-03-12T10:28:51.877Z,18.57
2017-03-12T10:30:01.829Z,18.53
2017-03-12T10:31:12.157Z,18.61
2017-03-12T10:32:22.749Z,18.55
2017-03-12T10:33:33.093Z,18.55
2017-03-12T10:34:43.874Z,18.57
2017-03-12T10:35:54.597Z,18.58
2017-03-12T10:37:04.936Z,18.57
2017-03-12T10:38:15.594Z,18.58
2017-03-12T10:39:26.345Z,18.57
2017-03-12T10:40:37.067Z,18.53
2017-03-12T10:41:47.408Z,18.57
2017-03-12T10:42:58.113Z,18.61
2017-03-12T10:44:07.519Z,18.64
2017-03-12T10:45:18.257Z,18.57
2017-03-12T10:46:28.984Z,18.57
2017-03-12T10:47:39.341Z,18.55
2017-03-12T10:48:49.253Z,18.57
2017-03-12T10:49:59.910Z,18.58
2017-03-12T10:51:10.229Z,18.58
2017-03-12T10:52:20.183Z,18.6
2017-03-12T10:53:30.140Z,18.6
2017-03-12T10:54:40.093Z,18.6
2017-03-12T10:55:50.661Z,18.67
2017-03-12T10:57:01.010Z,18.58
2017-03-12T10:58:11.776Z,18.61
2017-03-12T10:59:22.540Z,18.57
2017-03-12T11:00:33.285Z,18.63
2017-03-12T11:01:43.876Z,18.58
2017-03-12T11:02:54.224Z,18.58
2017-03-12T11:04:04.974Z,18.57
2017-03-12T11:05:15.747Z,18.61
2017-03-12T11:06:26.492Z,18.7
2017-03-12T11:07:37.552Z,18.67
2017-03-12T11:08:48.300Z,18.6
2017-03-12T11:09:59.075Z,18.61
2017-03-12T11:11:09.872Z,18.61
2017-03-12T11:12:19.987Z,18.57
2017-03-12T11:13:30.980Z,18.6
2017-03-12T11:14:41.722Z,18.64
2017-03-12T11:15:52.463Z,18.58
2017-03-12T11:17:03.226Z,18.6
2017-03-12T11:18:13.200Z,18.66
2017-03-12T11:19:23.785Z,18.68
2017-03-12T11:20:33.342Z,18.6
2017-03-12T11:21:44.092Z,18.68
2017-03-12T11:22:54.847Z,18.7
2017-03-12T11:24:05.609Z,18.64
2017-03-12T11:25:16.630Z,18.63
2017-03-12T11:26:26.977Z,18.67
2017-03-12T11:27:37.726Z,18.61
2017-03-12T11:28:48.519Z,18.6
2017-03-12T11:29:59.476Z,18.57
2017-03-12T11:31:10.558Z,18.57
2017-03-12T11:32:21.334Z,18.61
2017-03-12T11:33:31.716Z,18.6
2017-03-12T11:34:42.503Z,18.58
2017-03-12T11:35:52.882Z,18.6
2017-03-12T11:37:03.898Z,18.58
2017-03-12T11:38:14.268Z,18.55
2017-03-12T11:39:25.037Z,18.58
2017-03-12T11:40:35.808Z,18.64
2017-03-12T11:41:46.589Z,18.58
2017-03-12T11:42:57.619Z,18.7
2017-03-12T11:44:08.400Z,18.74
2017-03-12T11:45:19.204Z,18.63
2017-03-12T11:46:29.600Z,18.7
2017-03-12T11:47:40.414Z,18.7
2017-03-12T11:48:51.469Z,18.73
2017-03-12T11:50:02.221Z,18.64
2017-03-12T11:51:12.979Z,18.73
2017-03-12T11:52:23.769Z,18.67
2017-03-12T11:53:34.112Z,18.71
2017-03-12T11:54:44.772Z,18.73
2017-03-12T11:55:55.568Z,18.66
2017-03-12T11:57:06.334Z,18.68
2017-03-12T11:58:17.081Z,18.63
2017-03-12T11:59:27.866Z,18.67
2017-03-12T12:00:38.921Z,18.66
2017-03-12T12:01:49.702Z,18.71
2017-03-12T12:03:00.534Z,18.68
2017-03-12T12:04:11.328Z,18.58
2017-03-12T12:05:22.122Z,18.66
2017-03-12T12:06:33.124Z,18.68
2017-03-12T12:07:43.918Z,18.64
2017-03-12T12:08:54.673Z,18.76
2017-03-12T12:10:05.453Z,18.64
2017-03-12T12:11:16.229Z,18.66
2017-03-12T12:12:27.236Z,18.64
2017-03-12T12:13:38.008Z,18.66
2017-03-12T12:14:48.380Z,18.73
2017-03-12T12:15:59.132Z,18.68
2017-03-12T12:17:09.893Z,18.71
2017-03-12T12:18:20.134Z,18.73
2017-03-12T12:19:30.524Z,18.73
2017-03-12T12:20:40.497Z,18.71
2017-03-12T12:21:50.881Z,18.64
2017-03-12T12:23:01.254Z,18.7
2017-03-12T12:24:11.867Z,18.7
2017-03-12T12:25:22.648Z,18.68
2017-03-12T12:26:33.055Z,18.7
2017-03-12T12:27:43.836Z,18.67
2017-03-12T12:28:54.600Z,18.66
2017-03-12T12:30:05.674Z,18.7
2017-03-12T12:31:16.451Z,18.74
2017-03-12T12:32:26.821Z,18.67
2017-03-12T12:33:37.580Z,18.71
2017-03-12T12:34:48.291Z,18.78
2017-03-12T12:35:58.930Z,18.71
2017-03-12T12:37:09.271Z,18.68
2017-03-12T12:38:19.210Z,18.7
2017-03-12T12:39:29.148Z,18.64
2017-03-12T12:40:39.105Z,18.73
2017-03-12T12:41:49.730Z,18.67
2017-03-12T12:43:00.474Z,18.66
2017-03-12T12:44:10.412Z,18.63
2017-03-12T12:45:20.347Z,18.66
2017-03-12T12:46:29.502Z,18.71
2017-03-12T12:47:40.094Z,18.66
2017-03-12T12:48:50.824Z,18.73
2017-03-12T12:50:00.774Z,18.58
2017-03-12T12:51:11.114Z,18.7
2017-03-12T12:52:21.065Z,18.67
2017-03-12T12:53:31.688Z,18.7
2017-03-12T12:54:42.442Z,18.64
2017-03-12T12:55:52.391Z,18.7
2017-03-12T12:57:02.338Z,18.74
2017-03-12T12:58:12.705Z,18.7
2017-03-12T12:59:22.895Z,18.57
2017-03-12T13:00:33.230Z,18.68
2017-03-12T13:01:43.955Z,18.68
2017-03-12T13:02:53.905Z,18.68
2017-03-12T13:04:04.236Z,18.68
2017-03-12T13:05:14.083Z,18.63
2017-03-12T13:06:24.430Z,18.64
2017-03-12T13:07:35.187Z,18.67
2017-03-12T13:08:45.529Z,18.66
2017-03-12T13:09:55.942Z,18.58
2017-03-12T13:11:10.534Z,18.64
2017-03-12T13:12:20.856Z,18.58
2017-03-12T13:13:30.806Z,18.68
2017-03-12T13:14:41.557Z,18.71
2017-03-12T13:15:52.287Z,18.71
2017-03-12T13:17:02.955Z,18.61
2017-03-12T13:18:13.697Z,18.67
2017-03-12T13:19:24.056Z,18.67
2017-03-12T13:20:34.397Z,18.74
2017-03-12T13:21:44.745Z,18.58
2017-03-12T13:22:55.423Z,18.66
2017-03-12T13:24:05.754Z,18.66
2017-03-12T13:25:16.495Z,18.6
2017-03-12T13:26:27.228Z,18.64
2017-03-12T13:27:37.567Z,18.63
2017-03-12T13:28:48.538Z,18.68
2017-03-12T13:29:58.490Z,18.64
2017-03-12T13:31:08.040Z,18.7
2017-03-12T13:32:18.754Z,18.63
2017-03-12T13:33:29.097Z,18.61
2017-03-12T13:34:39.686Z,18.66
2017-03-12T13:35:50.433Z,18.61
2017-03-12T13:37:00.803Z,18.57
2017-03-12T13:38:11.548Z,18.58
2017-03-12T13:39:21.506Z,18.58
2017-03-12T13:40:32.102Z,18.7
2017-03-12T13:41:41.667Z,18.71
2017-03-12T13:42:52.408Z,18.57
2017-03-12T13:44:03.138Z,18.67
2017-03-12T13:45:13.086Z,18.68
2017-03-12T13:46:23.726Z,18.64
2017-03-12T13:47:34.079Z,18.66
2017-03-12T13:48:44.403Z,18.68
2017-03-12T13:49:55.134Z,18.66
2017-03-12T13:51:05.453Z,18.63
2017-03-12T13:52:15.326Z,18.63
2017-03-12T13:53:26.057Z,18.7
2017-03-12T13:54:36.408Z,18.66
2017-03-12T13:55:47.153Z,18.76
2017-03-12T13:56:57.940Z,18.66
2017-03-12T13:58:08.147Z,18.68
2017-03-12T13:59:18.497Z,18.74
2017-03-12T14:00:28.882Z,18.7
2017-03-12T14:01:39.615Z,18.71
2017-03-12T14:02:50.354Z,18.78
2017-03-12T14:04:00.163Z,18.64
2017-03-12T14:05:10.091Z,18.7
2017-03-12T14:06:20.818Z,18.67
2017-03-12T14:07:31.148Z,18.7
2017-03-12T14:08:41.082Z,18.58
2017-03-12T14:09:51.338Z,18.71
2017-03-12T14:11:02.087Z,18.7
2017-03-12T14:12:12.417Z,18.66
2017-03-12T14:13:22.364Z,18.67
2017-03-12T14:14:32.719Z,18.71
2017-03-12T14:15:43.389Z,18.71
2017-03-12T14:16:54.129Z,18.61
2017-03-12T14:18:04.511Z,18.63
2017-03-12T14:19:15.275Z,18.6
2017-03-12T14:20:25.228Z,18.61
2017-03-12T14:21:40.681Z,18.58
2017-03-12T14:22:49.842Z,18.64
2017-03-12T14:24:00.180Z,18.64
2017-03-12T14:25:10.510Z,18.61
2017-03-12T14:26:20.863Z,18.74
2017-03-12T14:27:30.301Z,18.6
2017-03-12T14:28:40.627Z,18.6
2017-03-12T14:29:50.582Z,18.6
2017-03-12T14:31:01.388Z,18.6
2017-03-12T14:32:11.729Z,18.58
2017-03-12T14:33:22.312Z,18.57
2017-03-12T14:34:32.393Z,18.64
2017-03-12T14:35:42.740Z,18.57
2017-03-12T14:36:52.692Z,18.58
2017-03-12T14:38:02.636Z,18.63
2017-03-12T14:39:13.240Z,18.61
2017-03-12T14:40:23.199Z,18.57
2017-03-12T14:41:33.164Z,18.58
2017-03-12T14:42:43.524Z,18.63
2017-03-12T14:43:53.875Z,18.68
2017-03-12T14:45:04.170Z,18.53
2017-03-12T14:46:14.153Z,18.55
2017-03-12T14:47:24.129Z,18.64
2017-03-12T14:48:33.273Z,18.55
2017-03-12T14:49:42.823Z,18.58
2017-03-12T14:50:53.471Z,18.6
2017-03-12T14:52:03.810Z,18.57
2017-03-12T14:53:14.173Z,18.64
2017-03-12T14:54:24.510Z,18.58
2017-03-12T14:55:35.242Z,18.57
2017-03-12T14:56:45.852Z,18.6
2017-03-12T14:57:56.576Z,18.58
2017-03-12T14:59:06.960Z,18.6
2017-03-12T15:00:16.886Z,18.58
2017-03-12T15:01:26.834Z,18.58
2017-03-12T15:02:37.018Z,18.58
2017-03-12T15:03:47.410Z,18.61
2017-03-12T15:04:57.750Z,18.58
2017-03-12T15:06:08.509Z,18.6
2017-03-12T15:07:19.269Z,18.58
2017-03-12T15:08:29.122Z,18.61
2017-03-12T15:09:39.841Z,18.55